Eastsound, WA

1:41 PM PST on February 21, 2017 (GMT -0800)
Northshore Park | | Change Station
Active Advisory: Small Craft Advisory

Elev 45 ft 48.71 °N, 122.89 °W | Updated 3 seconds ago

Mostly Cloudy
Mostly Cloudy
49.1 °F
Feels Like 49 °F
N
0.0
Wind Variable Wind from South
Gusts 0.0 mph

Today
High -- | Low -- °F
--% Chance of Precip.
Yesterday
High -- | Low -- °F
Precip. -- in
Pressure 29.94 in
Visibility 9.0 miles
Clouds Few 1500 ft
Mostly Cloudy 3600 ft
Windchill 49 °F
Dew Point 37 °F
Humidity 63%
Rainfall 0.00 in
Snow Depth Not available.
7:07 AM 5:43 PM
Waning Crescent, 22% visible
METAR KORS 212135Z AUTO 35008KT 9SM FEW015 BKN036 07/03 A2994 RMK AO2
Pressure 29.94 in
Visibility 9.0 miles
Clouds Few 1500 ft
Mostly Cloudy 3600 ft
Windchill 49 °F
Dew Point 37 °F
Humidity 63%
Rainfall 0.00 in
Snow Depth Not available.
7:07 AM 5:43 PM
Waning Crescent, 22% visible
METAR KORS 212135Z AUTO 35008KT 9SM FEW015 BKN036 07/03 A2994 RMK AO2

Get Your Daily Forecast Email!

Thanks for signing up!

Be on the lookout for a verification email in your inbox.

You'll start receiving the daily forecast at 8 AM.

×

10-Day Weather Forecast

Almanac

Astronomy

Feb. 21, 2017 Rise Set
Actual Time
Civil Twilight
Nautical Twilight
Astronomical Twilight
Moon
Length of Visible Light
Length of Day
Tomorrow will be .
, % of the Moon is Illuminated

Today's Extremes

State Highs State Lows

Community

WunderPhotos

Upload Photos

1,962,540 photos uploaded!

WunderBlog® & News

Nearby

Air Quality

  Air Quality AQ Index Pollutant
Not available.

Snow Depth

Station Depth Elevation

Earthquake Activity

City Distance Mag. Time & Date
Minimum magnitude displayed is 2.5.

Coastal Water Temperatures

Place Temperature

Stations

Nearby Weather Stations

Station Location Temp. Windchill Dew Point Humidity Wind Precip. Elev Updated Type
                   

Watches & Warnings

Small Craft Advisory
Issued: 9:59 AM PST Feb. 21, 2017 – National Weather Service

... Small Craft Advisory in effect until 4 PM PST this afternoon...

The National Weather Service in Seattle has issued a Small Craft
Advisory... which is in effect until 4 PM PST this afternoon.

* Wind and waves... northwest winds of 15 to 25 knots will ease
this afternoon. Wind waves of 1 to 4 feet will also subside this
afternoon.

Precautionary/preparedness actions...

A Small Craft Advisory means that wind speeds of 21 to 33 knots
are expected to produce hazardous wave conditions to small craft.
Inexperienced mariners... especially those operating smaller
vessels should avoid navigating in these conditions.